createdAt,value
2024-04-13T00:00:40.544Z,49.91
2024-04-13T00:03:10.263Z,50.75
2024-04-13T00:05:37.598Z,51.30
2024-04-13T00:08:07.776Z,51.64
2024-04-13T00:10:34.685Z,51.18
2024-04-13T00:13:04.428Z,51.35
2024-04-13T00:15:34.247Z,50.31
2024-04-13T00:18:04.009Z,51.11
2024-04-13T00:20:30.985Z,50.96
2024-04-13T00:23:01.061Z,51.06
2024-04-13T00:25:30.867Z,52.31
2024-04-13T00:28:00.740Z,52.60
2024-04-13T00:30:27.689Z,53.69
2024-04-13T00:32:59.898Z,53.20
2024-04-13T00:35:27.431Z,52.95
2024-04-13T00:37:56.894Z,52.79
2024-04-13T00:40:23.803Z,52.80
2024-04-13T00:42:53.444Z,53.29
2024-04-13T00:45:20.494Z,51.97
2024-04-13T00:47:50.187Z,51.94
2024-04-13T00:50:20.170Z,51.65
2024-04-13T00:52:51.658Z,52.99
2024-04-13T00:55:19.262Z,52.73
2024-04-13T00:57:49.071Z,53.83
2024-04-13T01:00:17.304Z,53.21
2024-04-13T01:02:48.362Z,53.40
2024-04-13T01:05:15.860Z,52.89
2024-04-13T01:07:49.975Z,52.52
2024-04-13T01:10:18.426Z,51.89
2024-04-13T01:12:48.460Z,51.79
2024-04-13T01:15:16.857Z,51.61
2024-04-13T01:17:48.435Z,51.73
2024-04-13T01:20:16.263Z,51.09
2024-04-13T01:22:49.850Z,51.23
2024-04-13T01:25:23.049Z,51.31
2024-04-13T01:27:52.993Z,50.97
2024-04-13T01:30:23.831Z,51.30
2024-04-13T01:32:53.949Z,51.93
2024-04-13T01:35:21.228Z,51.34
2024-04-13T01:37:50.731Z,51.46
2024-04-13T01:40:20.376Z,51.71
2024-04-13T01:42:49.879Z,51.40
2024-04-13T01:45:16.935Z,51.65
2024-04-13T01:47:46.652Z,52.35
2024-04-13T01:50:14.132Z,52.48
2024-04-13T01:52:43.688Z,54.27
2024-04-13T01:55:10.996Z,53.80
2024-04-13T01:57:43.153Z,53.08
2024-04-13T02:00:10.769Z,52.69
2024-04-13T02:02:40.283Z,52.10
2024-04-13T02:05:07.687Z,52.73
2024-04-13T02:07:37.703Z,52.65
2024-04-13T02:10:07.330Z,52.35
2024-04-13T02:12:36.917Z,52.65
2024-04-13T02:15:07.503Z,52.23
2024-04-13T02:17:37.201Z,52.19
2024-04-13T02:20:04.817Z,51.50
2024-04-13T02:22:36.730Z,52.20
2024-04-13T02:25:04.256Z,52.15
2024-04-13T02:27:35.199Z,52.01
2024-04-13T02:30:03.562Z,51.39
2024-04-13T02:32:35.768Z,51.31
2024-04-13T02:35:02.722Z,51.82
2024-04-13T02:37:33.052Z,52.34
2024-04-13T02:40:00.051Z,52.16
2024-04-13T02:42:30.172Z,51.72
2024-04-13T02:44:57.029Z,52.06
2024-04-13T02:47:27.112Z,51.40
2024-04-13T02:49:56.826Z,51.60
2024-04-13T02:52:27.006Z,51.69
2024-04-13T02:54:54.390Z,52.54
2024-04-13T02:57:23.999Z,51.92
2024-04-13T02:59:50.983Z,51.79
2024-04-13T03:02:21.092Z,52.28
2024-04-13T03:04:51.641Z,52.25
2024-04-13T03:07:24.303Z,52.44
2024-04-13T03:09:51.350Z,51.91
2024-04-13T03:12:20.891Z,53.03
2024-04-13T03:14:47.802Z,53.09
2024-04-13T03:17:17.381Z,52.88
2024-04-13T03:19:44.370Z,52.25
2024-04-13T03:22:13.861Z,52.29
2024-04-13T03:24:43.438Z,52.23
2024-04-13T03:27:13.843Z,51.47
2024-04-13T03:29:41.195Z,52.23
2024-04-13T03:32:11.194Z,52.70
2024-04-13T03:34:38.693Z,52.88
2024-04-13T03:37:08.859Z,53.10
2024-04-13T03:39:38.389Z,53.03
2024-04-13T03:42:10.862Z,52.63
2024-04-13T03:44:37.826Z,52.29
2024-04-13T03:47:07.612Z,53.43
2024-04-13T03:49:34.590Z,53.24
2024-04-13T03:52:04.366Z,52.46
2024-04-13T03:54:31.813Z,52.20
2024-04-13T03:57:01.344Z,52.46
2024-04-13T03:59:30.943Z,52.64
2024-04-13T04:02:01.840Z,51.92
2024-04-13T04:04:29.113Z,51.81
2024-04-13T04:06:59.402Z,52.70
2024-04-13T04:09:26.559Z,52.21
2024-04-13T04:11:56.175Z,52.39
2024-04-13T04:14:23.853Z,52.11
2024-04-13T04:16:56.351Z,51.77
2024-04-13T04:19:23.895Z,51.74
2024-04-13T04:21:55.027Z,51.90
2024-04-13T04:24:24.175Z,52.02
2024-04-13T04:26:54.114Z,51.73
2024-04-13T04:29:21.043Z,51.04
2024-04-13T04:31:50.633Z,52.99
2024-04-13T04:34:20.139Z,53.50
2024-04-13T04:36:49.672Z,53.66
2024-04-13T04:39:19.015Z,53.14
2024-04-13T04:41:48.633Z,52.51
2024-04-13T04:44:15.580Z,52.59
2024-04-13T04:46:46.915Z,53.06
2024-04-13T04:49:14.527Z,53.11
2024-04-13T04:51:47.013Z,53.11
2024-04-13T04:54:13.959Z,53.76
2024-04-13T04:56:43.655Z,53.18
2024-04-13T04:59:10.979Z,53.06
2024-04-13T05:01:40.481Z,52.96
2024-04-13T05:04:07.582Z,52.35
2024-04-13T05:06:37.369Z,52.38
2024-04-13T05:09:08.575Z,52.47
2024-04-13T05:11:38.125Z,52.08
2024-04-13T05:14:05.074Z,51.88
2024-04-13T05:16:35.798Z,52.22
2024-04-13T05:19:04.849Z,52.31
2024-04-13T05:21:34.654Z,53.02
2024-04-13T05:24:01.929Z,52.90
2024-04-13T05:26:34.677Z,53.02
2024-04-13T05:29:04.466Z,53.12
2024-04-13T05:31:34.011Z,54.48
2024-04-13T05:34:00.988Z,54.03
2024-04-13T05:36:30.489Z,54.15
2024-04-13T05:38:57.459Z,53.71
2024-04-13T05:41:27.000Z,54.96
2024-04-13T05:43:56.518Z,54.58
2024-04-13T05:46:26.188Z,54.42
2024-04-13T05:48:53.215Z,54.01
2024-04-13T05:51:22.734Z,54.08
2024-04-13T05:53:49.624Z,54.40
2024-04-13T05:56:19.226Z,54.68
2024-04-13T05:58:46.133Z,54.82
2024-04-13T06:01:18.346Z,54.32
2024-04-13T06:03:45.247Z,54.48
2024-04-13T06:06:14.789Z,54.78
2024-04-13T06:08:41.806Z,55.55
2024-04-13T06:11:11.355Z,56.33
2024-04-13T06:13:38.404Z,55.62
2024-04-13T06:16:08.798Z,55.23
2024-04-13T06:18:38.381Z,55.18
2024-04-13T06:21:08.504Z,54.78
2024-04-13T06:23:35.531Z,55.38
2024-04-13T06:26:06.248Z,56.07
2024-04-13T06:28:33.222Z,54.91
2024-04-13T06:31:02.865Z,55.86
2024-04-13T06:33:30.706Z,55.50
2024-04-13T06:36:02.996Z,56.05
2024-04-13T06:38:31.103Z,57.46
2024-04-13T06:41:00.982Z,57.09
2024-04-13T06:43:27.935Z,56.57
2024-04-13T06:45:57.544Z,56.31
2024-04-13T06:48:24.723Z,56.07
2024-04-13T06:50:54.284Z,56.02
2024-04-13T06:53:24.826Z,56.03
2024-04-13T06:55:54.378Z,56.16
2024-04-13T06:58:24.927Z,56.99
2024-04-13T07:00:59.374Z,56.41
2024-04-13T07:03:26.607Z,56.76
2024-04-13T07:06:00.526Z,55.39
2024-04-13T07:08:30.179Z,55.49
2024-04-13T07:11:00.529Z,55.94
2024-04-13T07:13:28.755Z,56.00
2024-04-13T07:15:58.622Z,55.82
2024-04-13T07:18:25.664Z,55.45
2024-04-13T07:20:55.220Z,55.71
2024-04-13T07:23:22.708Z,55.95
2024-04-13T07:26:03.048Z,55.68
2024-04-13T07:28:31.656Z,55.79
2024-04-13T07:31:01.437Z,55.57
2024-04-13T07:33:29.095Z,55.48
2024-04-13T07:35:58.984Z,56.26
2024-04-13T07:38:26.488Z,57.79
2024-04-13T07:40:56.166Z,57.08
2024-04-13T07:43:30.435Z,55.47
2024-04-13T07:45:57.803Z,53.93
2024-04-13T07:48:27.494Z,53.33
2024-04-13T07:50:54.523Z,53.34
2024-04-13T07:53:24.153Z,52.66
2024-04-13T07:55:51.721Z,53.90
2024-04-13T07:58:21.279Z,53.64
2024-04-13T08:00:51.124Z,53.88
2024-04-13T08:03:20.997Z,54.08
2024-04-13T08:05:47.979Z,52.88
2024-04-13T08:08:17.459Z,52.45
2024-04-13T08:10:47.947Z,51.70
2024-04-13T08:13:15.658Z,50.69
2024-04-13T08:15:45.517Z,50.80
2024-04-13T08:18:16.587Z,50.87
2024-04-13T08:20:46.658Z,50.72
2024-04-13T08:23:15.531Z,50.56
2024-04-13T08:25:46.351Z,49.76
2024-04-13T08:28:13.587Z,50.73
2024-04-13T08:30:44.448Z,49.80
2024-04-13T08:33:14.397Z,49.55
2024-04-13T08:35:44.028Z,48.46
2024-04-13T08:38:13.378Z,49.24
2024-04-13T08:40:44.374Z,47.92
2024-04-13T08:43:11.380Z,46.34
2024-04-13T08:45:41.330Z,46.72
2024-04-13T08:48:11.658Z,44.81
2024-04-13T08:50:46.066Z,45.78
2024-04-13T08:53:15.163Z,46.84
2024-04-13T08:55:45.675Z,46.50
2024-04-13T08:58:16.357Z,45.57
2024-04-13T09:00:51.975Z,45.10
2024-04-13T09:03:20.624Z,45.48
2024-04-13T09:05:53.491Z,44.21
2024-04-13T09:08:23.322Z,45.50
2024-04-13T09:10:55.429Z,46.79
2024-04-13T09:13:22.436Z,45.32
2024-04-13T09:15:52.036Z,43.57
2024-04-13T09:18:19.112Z,44.37
2024-04-13T09:20:49.489Z,44.12
2024-04-13T09:23:19.335Z,43.32
2024-04-13T09:25:49.212Z,42.95
2024-04-13T09:28:16.177Z,42.59
2024-04-13T09:30:45.995Z,42.49
2024-04-13T09:33:14.666Z,42.30
2024-04-13T09:35:44.333Z,41.47
2024-04-13T09:38:19.804Z,41.14
2024-04-13T09:40:49.509Z,41.36
2024-04-13T09:43:21.595Z,39.16
2024-04-13T09:45:51.273Z,39.97
2024-04-13T09:48:18.884Z,41.09
2024-04-13T09:50:48.631Z,40.33
2024-04-13T09:53:15.975Z,40.14
2024-04-13T09:55:48.348Z,40.54
2024-04-13T09:58:16.548Z,41.01
2024-04-13T10:00:47.985Z,40.19
2024-04-13T10:03:15.327Z,41.45
2024-04-13T10:05:47.157Z,40.60
2024-04-13T10:08:15.269Z,41.11
2024-04-13T10:10:51.046Z,39.25
2024-04-13T10:13:24.837Z,39.62
2024-04-13T10:15:55.378Z,39.19
2024-04-13T10:18:24.960Z,38.63
2024-04-13T10:20:59.527Z,37.60
2024-04-13T10:23:26.619Z,37.40
2024-04-13T10:26:02.149Z,36.57
2024-04-13T10:28:29.114Z,37.20
2024-04-13T10:30:59.802Z,36.64
2024-04-13T10:33:30.610Z,37.06
2024-04-13T10:36:01.661Z,36.92
2024-04-13T10:38:30.719Z,36.65
2024-04-13T10:41:03.532Z,36.54
2024-04-13T10:43:31.353Z,36.11
2024-04-13T10:46:03.063Z,35.48
2024-04-13T10:48:31.912Z,34.96
2024-04-13T10:51:03.619Z,34.16
2024-04-13T10:53:30.620Z,34.52
2024-04-13T10:56:02.988Z,33.55
2024-04-13T10:58:30.729Z,34.44
2024-04-13T11:01:01.315Z,33.93
2024-04-13T11:03:29.242Z,34.19
2024-04-13T11:05:59.529Z,33.96
2024-04-13T11:08:29.203Z,33.01
2024-04-13T11:10:57.974Z,33.12
2024-04-13T11:13:31.914Z,32.28
2024-04-13T11:15:59.478Z,30.90
2024-04-13T11:18:30.683Z,32.01
2024-04-13T11:21:02.548Z,31.45
2024-04-13T11:23:32.485Z,31.83
2024-04-13T11:25:59.733Z,32.53
2024-04-13T11:28:32.180Z,31.79
2024-04-13T11:30:59.295Z,31.04
2024-04-13T11:33:29.497Z,31.21
2024-04-13T11:35:58.234Z,30.43
2024-04-13T11:38:30.464Z,29.52
2024-04-13T11:40:57.512Z,30.74
2024-04-13T11:43:27.748Z,30.56
2024-04-13T11:45:57.604Z,31.34
2024-04-13T11:48:31.410Z,30.87
2024-04-13T11:50:58.869Z,29.81
2024-04-13T11:53:29.202Z,29.93
2024-04-13T11:55:57.546Z,29.21
2024-04-13T11:58:27.269Z,29.24
2024-04-13T12:00:54.331Z,28.91
2024-04-13T12:03:26.576Z,28.44
2024-04-13T12:05:53.583Z,28.95
2024-04-13T12:08:23.265Z,27.93
2024-04-13T12:10:50.249Z,28.31
2024-04-13T12:13:20.286Z,28.45
2024-04-13T12:15:47.423Z,28.02
2024-04-13T12:18:17.138Z,27.63
2024-04-13T12:20:46.855Z,28.92
2024-04-13T12:23:17.381Z,29.82
2024-04-13T12:25:44.684Z,28.65
2024-04-13T12:28:14.419Z,29.29
2024-04-13T12:30:43.864Z,29.47
2024-04-13T12:33:13.646Z,28.55
2024-04-13T12:35:41.575Z,29.22
2024-04-13T12:38:13.815Z,27.50
2024-04-13T12:40:41.103Z,26.90
2024-04-13T12:43:11.067Z,26.13
2024-04-13T12:45:38.241Z,26.39
2024-04-13T12:48:09.163Z,26.68
2024-04-13T12:50:36.538Z,26.37
2024-04-13T12:53:06.294Z,25.49
2024-04-13T12:55:36.006Z,25.23
2024-04-13T12:58:06.297Z,26.36
2024-04-13T13:00:33.334Z,27.05
2024-04-13T13:03:03.013Z,26.17
2024-04-13T13:05:31.146Z,26.12
2024-04-13T13:08:00.876Z,25.93
2024-04-13T13:10:28.147Z,26.22
2024-04-13T13:13:00.975Z,26.33
2024-04-13T13:15:29.777Z,25.60
2024-04-13T13:17:59.682Z,26.17
2024-04-13T13:20:26.732Z,26.16
2024-04-13T13:22:56.675Z,25.79
2024-04-13T13:25:23.811Z,26.40
2024-04-13T13:27:54.060Z,26.83
2024-04-13T13:30:23.986Z,26.13
2024-04-13T13:32:55.465Z,26.30
2024-04-13T13:35:22.585Z,26.76
2024-04-13T13:37:52.171Z,25.27
2024-04-13T13:40:19.463Z,25.09
2024-04-13T13:42:49.152Z,25.33
2024-04-13T13:45:16.670Z,26.17
2024-04-13T13:47:49.948Z,26.36
2024-04-13T13:50:17.927Z,26.17
2024-04-13T13:52:50.987Z,25.86
2024-04-13T13:55:19.275Z,27.69
2024-04-13T13:57:48.976Z,27.43
2024-04-13T14:00:16.727Z,27.55
2024-04-13T14:02:49.914Z,26.14
2024-04-13T14:05:17.177Z,25.57
2024-04-13T14:07:46.865Z,25.41
2024-04-13T14:10:14.015Z,25.98
2024-04-13T14:12:44.395Z,26.69
2024-04-13T14:15:11.471Z,27.99
2024-04-13T14:17:41.181Z,28.41
2024-04-13T14:20:11.078Z,28.62
2024-04-13T14:22:41.506Z,27.40
2024-04-13T14:25:08.844Z,26.99
2024-04-13T14:27:38.863Z,26.76
2024-04-13T14:30:07.155Z,26.81
2024-04-13T14:32:36.989Z,26.60
2024-04-13T14:35:04.992Z,26.41
2024-04-13T14:37:37.455Z,26.63
2024-04-13T14:40:05.302Z,27.04
2024-04-13T14:42:34.926Z,27.68
2024-04-13T14:45:02.038Z,27.78
2024-04-13T14:47:31.670Z,27.35
2024-04-13T14:49:58.825Z,27.23
2024-04-13T14:52:30.010Z,27.05
2024-04-13T14:55:00.862Z,27.28
2024-04-13T14:57:30.433Z,27.68
2024-04-13T14:59:57.608Z,29.07
2024-04-13T15:02:27.220Z,29.05
2024-04-13T15:04:54.301Z,30.25
2024-04-13T15:07:24.667Z,30.59
2024-04-13T15:09:52.054Z,29.95
2024-04-13T15:12:24.430Z,28.88
2024-04-13T15:14:53.148Z,28.76
2024-04-13T15:17:22.865Z,28.40
2024-04-13T15:19:50.155Z,29.49
2024-04-13T15:22:19.796Z,30.20
2024-04-13T15:24:46.837Z,29.99
2024-04-13T15:27:16.897Z,30.78
2024-04-13T15:29:46.518Z,30.31
2024-04-13T15:32:16.200Z,30.44
2024-04-13T15:34:43.180Z,31.02
2024-04-13T15:37:12.749Z,31.36
2024-04-13T15:39:39.849Z,31.23
2024-04-13T15:42:10.044Z,30.87
2024-04-13T15:44:37.053Z,31.08
2024-04-13T15:47:09.425Z,30.84
2024-04-13T15:49:36.399Z,31.06
2024-04-13T15:52:06.128Z,31.69
2024-04-13T15:54:33.228Z,31.46
2024-04-13T15:57:02.790Z,33.25
2024-04-13T15:59:30.268Z,32.58
2024-04-13T16:01:59.812Z,32.32
2024-04-13T16:04:29.441Z,32.16
2024-04-13T16:06:59.117Z,32.52
2024-04-13T16:09:26.159Z,33.00
2024-04-13T16:11:55.900Z,33.77
2024-04-13T16:15:05.435Z,32.76
2024-04-13T16:17:36.227Z,31.29
2024-04-13T16:20:07.493Z,32.12
2024-04-13T16:22:37.299Z,32.60
2024-04-13T16:25:04.791Z,32.87
2024-04-13T16:27:34.514Z,33.18
2024-04-13T16:30:01.728Z,33.75
2024-04-13T16:32:31.406Z,34.86
2024-04-13T16:34:58.448Z,34.31
2024-04-13T16:37:31.274Z,34.91
2024-04-13T16:39:59.188Z,33.94
2024-04-13T16:42:29.317Z,33.94
2024-04-13T16:44:56.297Z,34.02
2024-04-13T16:47:26.069Z,33.17
2024-04-13T16:49:53.324Z,33.12
2024-04-13T16:52:23.043Z,33.85
2024-04-13T16:54:53.267Z,33.44
2024-04-13T16:57:22.894Z,33.43
2024-04-13T16:59:49.896Z,32.95
2024-04-13T17:02:19.479Z,33.32
2024-04-13T17:04:46.977Z,33.63
2024-04-13T17:07:16.622Z,34.26
2024-04-13T17:09:43.613Z,35.17
2024-04-13T17:12:15.837Z,34.70
2024-04-13T17:14:42.918Z,35.54
2024-04-13T17:17:12.721Z,35.30
2024-04-13T17:19:39.794Z,36.15
2024-04-13T17:22:09.622Z,36.69
2024-04-13T17:24:36.642Z,36.26
2024-04-13T17:27:06.612Z,36.62
2024-04-13T17:29:36.362Z,37.08
2024-04-13T17:32:06.008Z,37.30
2024-04-13T17:34:35.600Z,37.79
2024-04-13T17:37:02.761Z,38.04
2024-04-13T17:39:32.522Z,37.91
2024-04-13T17:41:59.457Z,38.47
2024-04-13T17:44:29.058Z,38.45
2024-04-13T17:46:58.825Z,38.92
2024-04-13T17:49:28.559Z,39.26
2024-04-13T17:51:55.507Z,39.35
2024-04-13T17:54:25.135Z,40.03
2024-04-13T17:56:52.403Z,39.83
2024-04-13T17:59:22.100Z,40.04
2024-04-13T18:01:49.131Z,41.12
2024-04-13T18:04:21.498Z,41.98
2024-04-13T18:06:48.720Z,41.95
2024-04-13T18:09:18.653Z,42.32
2024-04-13T18:11:48.056Z,42.38
2024-04-13T18:14:17.978Z,42.94
2024-04-13T18:16:45.401Z,43.77
2024-04-13T18:19:15.228Z,43.86
2024-04-13T18:21:45.266Z,45.04
2024-04-13T18:24:20.214Z,45.12
2024-04-13T18:26:47.800Z,45.15
2024-04-13T18:29:17.392Z,46.08
2024-04-13T18:31:44.392Z,45.54
2024-04-13T18:34:14.545Z,46.71
2024-04-13T18:36:44.291Z,46.76
2024-04-13T18:39:15.359Z,47.06
2024-04-13T18:41:42.357Z,47.59
2024-04-13T18:44:12.415Z,47.38
2024-04-13T18:46:39.343Z,46.72
2024-04-13T18:49:08.881Z,46.63
2024-04-13T18:51:35.827Z,46.78
2024-04-13T18:54:08.104Z,47.63
2024-04-13T18:56:35.023Z,47.38
2024-04-13T18:59:05.329Z,47.05
2024-04-13T19:01:33.235Z,46.42
2024-04-13T19:04:04.468Z,45.98
2024-04-13T19:06:32.595Z,45.63
2024-04-13T19:09:02.521Z,45.92
2024-04-13T19:11:32.818Z,45.59
2024-04-13T19:14:02.503Z,45.48
2024-04-13T19:16:29.554Z,45.68
2024-04-13T19:18:59.309Z,46.15
2024-04-13T19:21:26.365Z,45.93
2024-04-13T19:23:55.930Z,46.77
2024-04-13T19:26:22.860Z,47.66
2024-04-13T19:28:55.420Z,48.25
2024-04-13T19:31:22.435Z,47.51
2024-04-13T19:33:52.334Z,47.66
2024-04-13T19:36:19.673Z,48.78
2024-04-13T19:38:49.364Z,49.21
2024-04-13T19:41:18.498Z,50.75
2024-04-13T19:43:48.535Z,51.06
2024-04-13T19:46:18.646Z,50.75
2024-04-13T19:48:48.969Z,49.61
2024-04-13T19:51:16.014Z,48.45
2024-04-13T19:53:49.933Z,47.93
2024-04-13T19:56:17.032Z,47.73
2024-04-13T19:58:46.800Z,47.67
2024-04-13T20:01:13.889Z,47.52
2024-04-13T20:03:46.302Z,47.72
2024-04-13T20:06:13.554Z,47.86
2024-04-13T20:08:45.786Z,49.48
2024-04-13T20:11:12.813Z,49.45
2024-04-13T20:13:43.219Z,49.08
2024-04-13T20:16:28.773Z,48.79
2024-04-13T20:19:01.046Z,48.31
2024-04-13T20:21:30.656Z,49.27
2024-04-13T20:24:00.210Z,49.01
2024-04-13T20:26:30.315Z,48.37
2024-04-13T20:28:59.994Z,48.46
2024-04-13T20:31:26.932Z,49.27
2024-04-13T20:33:56.637Z,49.66
2024-04-13T20:36:26.340Z,51.46
2024-04-13T20:38:57.361Z,52.05
2024-04-13T20:41:24.331Z,51.91
2024-04-13T20:43:53.836Z,51.42
2024-04-13T20:46:20.828Z,51.26
2024-04-13T20:48:51.771Z,51.08
2024-04-13T20:51:18.831Z,51.60
2024-04-13T20:53:51.541Z,52.81
2024-04-13T20:56:18.900Z,51.61
2024-04-13T20:58:48.460Z,50.62
2024-04-13T21:01:15.605Z,50.04
2024-04-13T21:03:45.290Z,50.02
2024-04-13T21:06:14.158Z,49.88
2024-04-13T21:08:43.755Z,49.41
2024-04-13T21:11:13.508Z,49.61
2024-04-13T21:13:43.099Z,49.00
2024-04-13T21:16:10.284Z,49.35
2024-04-13T21:18:39.928Z,50.43
2024-04-13T21:21:06.929Z,49.96
2024-04-13T21:23:37.027Z,50.48
2024-04-13T21:26:04.424Z,49.78
2024-04-13T21:28:36.661Z,50.09
2024-04-13T21:31:04.358Z,49.54
2024-04-13T21:33:34.311Z,49.81
2024-04-13T21:36:01.403Z,49.09
2024-04-13T21:38:31.088Z,50.03
2024-04-13T21:40:59.938Z,50.74
2024-04-13T21:43:29.520Z,50.89
2024-04-13T21:45:59.191Z,50.86
2024-04-13T21:48:28.697Z,50.24
2024-04-13T21:50:55.698Z,50.81
2024-04-13T21:53:25.374Z,51.00
2024-04-13T21:55:52.339Z,51.43
2024-04-13T21:58:21.871Z,50.85
2024-04-13T22:00:48.796Z,51.22
2024-04-13T22:03:21.290Z,50.88
2024-04-13T22:05:48.301Z,50.41
2024-04-13T22:08:17.935Z,51.27
2024-04-13T22:10:44.939Z,51.88
2024-04-13T22:13:14.595Z,51.89
2024-04-13T22:15:41.631Z,51.99
2024-04-13T22:18:11.807Z,52.17
2024-04-13T22:20:41.384Z,52.28
2024-04-13T22:23:11.268Z,52.23
2024-04-13T22:25:38.699Z,52.30
2024-04-13T22:28:08.641Z,52.03
2024-04-13T22:30:35.591Z,52.93
2024-04-13T22:33:05.205Z,55.37
2024-04-13T22:35:32.183Z,53.58
2024-04-13T22:38:04.469Z,53.44
2024-04-13T22:40:31.388Z,53.37
2024-04-13T22:43:01.193Z,53.97
2024-04-13T22:45:28.313Z,53.18
2024-04-13T22:47:57.978Z,53.92
2024-04-13T22:50:25.006Z,54.60
2024-04-13T22:52:54.579Z,54.00
2024-04-13T22:55:24.223Z,54.31
2024-04-13T22:57:53.914Z,54.06
2024-04-13T23:00:21.199Z,53.64
2024-04-13T23:02:50.754Z,52.68
2024-04-13T23:05:17.615Z,52.80
2024-04-13T23:07:47.130Z,52.58
2024-04-13T23:10:14.338Z,52.22
2024-04-13T23:12:46.544Z,52.47
2024-04-13T23:15:14.059Z,51.29
2024-04-13T23:17:43.578Z,51.34
2024-04-13T23:20:12.259Z,51.76
2024-04-13T23:22:41.761Z,52.82
2024-04-13T23:25:09.041Z,53.95
2024-04-13T23:27:38.705Z,53.94
2024-04-13T23:30:09.136Z,54.14
2024-04-13T23:32:39.241Z,55.01
2024-04-13T23:35:06.927Z,54.20
2024-04-13T23:37:36.588Z,53.20
2024-04-13T23:40:03.852Z,52.99
2024-04-13T23:42:33.380Z,52.51
2024-04-13T23:45:00.351Z,52.15
2024-04-13T23:47:32.423Z,52.48
2024-04-13T23:49:59.634Z,52.97
2024-04-13T23:52:29.436Z,53.93
2024-04-13T23:54:56.938Z,53.62
2024-04-13T23:57:26.836Z,54.00
2024-04-13T23:59:53.763Z,53.06
